sensor_id;sensor_type;location;lat;lon;timestamp;P1;durP1;ratioP1;P2;durP2;ratioP2
10309;SDS011;5200;43.236;27.986;2022-09-13T00:00:33;5.60;;;1.90;;
10309;SDS011;5200;43.236;27.986;2022-09-13T00:03:00;2.60;;;1.95;;
10309;SDS011;5200;43.236;27.986;2022-09-13T00:05:28;3.83;;;2.35;;
10309;SDS011;5200;43.236;27.986;2022-09-13T00:07:56;1.73;;;1.63;;
10309;SDS011;5200;43.236;27.986;2022-09-13T00:10:24;1.98;;;1.77;;
10309;SDS011;5200;43.236;27.986;2022-09-13T00:12:52;1.80;;;1.70;;
10309;SDS011;5200;43.236;27.986;2022-09-13T00:15:19;1.75;;;1.65;;
10309;SDS011;5200;43.236;27.986;2022-09-13T00:17:46;4.20;;;1.88;;
10309;SDS011;5200;43.236;27.986;2022-09-13T00:20:13;2.20;;;1.60;;
10309;SDS011;5200;43.236;27.986;2022-09-13T00:22:40;2.00;;;1.90;;
10309;SDS011;5200;43.236;27.986;2022-09-13T00:25:08;2.35;;;2.15;;
10309;SDS011;5200;43.236;27.986;2022-09-13T00:27:36;4.95;;;1.67;;
10309;SDS011;5200;43.236;27.986;2022-09-13T00:30:04;1.73;;;1.63;;
10309;SDS011;5200;43.236;27.986;2022-09-13T00:32:32;2.55;;;2.35;;
10309;SDS011;5200;43.236;27.986;2022-09-13T00:35:00;1.60;;;1.30;;
10309;SDS011;5200;43.236;27.986;2022-09-13T00:37:27;1.67;;;1.58;;
10309;SDS011;5200;43.236;27.986;2022-09-13T00:39:54;1.98;;;1.38;;
10309;SDS011;5200;43.236;27.986;2022-09-13T00:42:23;1.13;;;1.13;;
10309;SDS011;5200;43.236;27.986;2022-09-13T00:44:54;1.23;;;1.13;;
10309;SDS011;5200;43.236;27.986;2022-09-13T00:47:25;1.33;;;1.20;;
10309;SDS011;5200;43.236;27.986;2022-09-13T00:49:58;1.33;;;1.23;;
10309;SDS011;5200;43.236;27.986;2022-09-13T00:52:31;1.42;;;0.98;;
10309;SDS011;5200;43.236;27.986;2022-09-13T00:55:01;1.15;;;1.10;;
10309;SDS011;5200;43.236;27.986;2022-09-13T00:57:30;2.13;;;1.15;;
10309;SDS011;5200;43.236;27.986;2022-09-13T01:00:01;1.88;;;1.17;;
10309;SDS011;5200;43.236;27.986;2022-09-13T01:02:35;1.70;;;1.13;;
10309;SDS011;5200;43.236;27.986;2022-09-13T01:05:03;3.95;;;0.95;;
10309;SDS011;5200;43.236;27.986;2022-09-13T01:07:31;1.10;;;0.88;;
10309;SDS011;5200;43.236;27.986;2022-09-13T01:09:58;1.58;;;1.02;;
10309;SDS011;5200;43.236;27.986;2022-09-13T01:12:28;2.83;;;0.82;;
10309;SDS011;5200;43.236;27.986;2022-09-13T01:15:02;0.82;;;0.82;;
10309;SDS011;5200;43.236;27.986;2022-09-13T01:17:30;1.70;;;1.05;;
10309;SDS011;5200;43.236;27.986;2022-09-13T01:19:59;6.20;;;0.98;;
10309;SDS011;5200;43.236;27.986;2022-09-13T01:22:33;1.05;;;0.73;;
10309;SDS011;5200;43.236;27.986;2022-09-13T01:28:57;1.05;;;1.02;;
10309;SDS011;5200;43.236;27.986;2022-09-13T01:31:41;1.42;;;0.70;;
10309;SDS011;5200;43.236;27.986;2022-09-13T01:34:17;1.33;;;1.10;;
10309;SDS011;5200;43.236;27.986;2022-09-13T01:36:59;1.27;;;1.17;;
10309;SDS011;5200;43.236;27.986;2022-09-13T01:39:48;2.45;;;1.00;;
10309;SDS011;5200;43.236;27.986;2022-09-13T01:42:27;0.82;;;0.82;;
10309;SDS011;5200;43.236;27.986;2022-09-13T01:45:10;1.05;;;0.90;;
10309;SDS011;5200;43.236;27.986;2022-09-13T01:47:49;2.15;;;0.90;;
10309;SDS011;5200;43.236;27.986;2022-09-13T01:50:21;0.57;;;0.57;;
10309;SDS011;5200;43.236;27.986;2022-09-13T01:52:55;4.03;;;0.95;;
10309;SDS011;5200;43.236;27.986;2022-09-13T01:55:29;1.13;;;0.90;;
10309;SDS011;5200;43.236;27.986;2022-09-13T01:58:04;0.90;;;0.90;;
10309;SDS011;5200;43.236;27.986;2022-09-13T02:00:40;1.98;;;0.70;;
10309;SDS011;5200;43.236;27.986;2022-09-13T02:03:14;1.30;;;1.15;;
10309;SDS011;5200;43.236;27.986;2022-09-13T02:05:46;0.88;;;0.88;;
10309;SDS011;5200;43.236;27.986;2022-09-13T02:08:18;0.88;;;0.73;;
10309;SDS011;5200;43.236;27.986;2022-09-13T02:10:50;2.85;;;0.82;;
10309;SDS011;5200;43.236;27.986;2022-09-13T02:13:23;2.15;;;0.93;;
10309;SDS011;5200;43.236;27.986;2022-09-13T02:15:54;0.70;;;0.70;;
10309;SDS011;5200;43.236;27.986;2022-09-13T02:18:28;1.35;;;1.25;;
10309;SDS011;5200;43.236;27.986;2022-09-13T02:21:00;1.63;;;0.80;;
10309;SDS011;5200;43.236;27.986;2022-09-13T02:23:35;0.60;;;0.60;;
10309;SDS011;5200;43.236;27.986;2022-09-13T02:26:06;0.98;;;0.93;;
10309;SDS011;5200;43.236;27.986;2022-09-13T02:28:38;1.17;;;1.08;;
10309;SDS011;5200;43.236;27.986;2022-09-13T02:31:09;1.00;;;1.00;;
10309;SDS011;5200;43.236;27.986;2022-09-13T02:33:40;1.33;;;1.23;;
10309;SDS011;5200;43.236;27.986;2022-09-13T02:36:12;2.33;;;1.00;;
10309;SDS011;5200;43.236;27.986;2022-09-13T02:38:43;3.53;;;1.10;;
10309;SDS011;5200;43.236;27.986;2022-09-13T02:41:15;2.35;;;0.93;;
10309;SDS011;5200;43.236;27.986;2022-09-13T02:43:47;1.88;;;0.80;;
10309;SDS011;5200;43.236;27.986;2022-09-13T02:46:20;0.93;;;0.93;;
10309;SDS011;5200;43.236;27.986;2022-09-13T02:48:57;0.95;;;0.95;;
10309;SDS011;5200;43.236;27.986;2022-09-13T02:51:32;1.05;;;1.00;;
10309;SDS011;5200;43.236;27.986;2022-09-13T02:54:08;1.58;;;1.08;;
10309;SDS011;5200;43.236;27.986;2022-09-13T02:56:43;1.08;;;0.80;;
10309;SDS011;5200;43.236;27.986;2022-09-13T02:59:18;0.82;;;0.82;;
10309;SDS011;5200;43.236;27.986;2022-09-13T03:01:48;0.82;;;0.82;;
10309;SDS011;5200;43.236;27.986;2022-09-13T03:04:20;1.27;;;1.17;;
10309;SDS011;5200;43.236;27.986;2022-09-13T03:06:47;2.25;;;1.15;;
10309;SDS011;5200;43.236;27.986;2022-09-13T03:09:15;2.00;;;0.93;;
10309;SDS011;5200;43.236;27.986;2022-09-13T03:11:55;1.25;;;0.98;;
10309;SDS011;5200;43.236;27.986;2022-09-13T03:14:39;0.80;;;0.80;;
10309;SDS011;5200;43.236;27.986;2022-09-13T03:17:13;1.00;;;1.00;;
10309;SDS011;5200;43.236;27.986;2022-09-13T03:19:59;0.88;;;0.88;;
10309;SDS011;5200;43.236;27.986;2022-09-13T03:22:46;0.90;;;0.90;;
10309;SDS011;5200;43.236;27.986;2022-09-13T03:25:38;0.80;;;0.80;;
10309;SDS011;5200;43.236;27.986;2022-09-13T03:28:18;6.70;;;1.35;;
10309;SDS011;5200;43.236;27.986;2022-09-13T03:30:52;0.75;;;0.57;;
10309;SDS011;5200;43.236;27.986;2022-09-13T03:33:27;1.25;;;1.15;;
10309;SDS011;5200;43.236;27.986;2022-09-13T03:36:00;0.80;;;0.80;;
10309;SDS011;5200;43.236;27.986;2022-09-13T03:38:36;2.00;;;0.93;;
10309;SDS011;5200;43.236;27.986;2022-09-13T03:41:06;1.17;;;1.17;;
10309;SDS011;5200;43.236;27.986;2022-09-13T03:43:37;0.90;;;0.73;;
10309;SDS011;5200;43.236;27.986;2022-09-13T03:46:10;2.38;;;0.82;;
10309;SDS011;5200;43.236;27.986;2022-09-13T03:48:41;0.75;;;0.65;;
10309;SDS011;5200;43.236;27.986;2022-09-13T03:51:10;0.80;;;0.80;;
10309;SDS011;5200;43.236;27.986;2022-09-13T03:53:38;1.20;;;1.02;;
10309;SDS011;5200;43.236;27.986;2022-09-13T03:56:12;1.20;;;0.90;;
10309;SDS011;5200;43.236;27.986;2022-09-13T03:58:39;1.15;;;0.95;;
10309;SDS011;5200;43.236;27.986;2022-09-13T04:01:06;0.60;;;0.60;;
10309;SDS011;5200;43.236;27.986;2022-09-13T04:03:34;1.10;;;1.00;;
10309;SDS011;5200;43.236;27.986;2022-09-13T04:06:02;2.30;;;1.40;;
10309;SDS011;5200;43.236;27.986;2022-09-13T04:08:30;1.05;;;0.80;;
10309;SDS011;5200;43.236;27.986;2022-09-13T04:10:58;2.08;;;0.98;;
10309;SDS011;5200;43.236;27.986;2022-09-13T04:13:25;0.95;;;0.88;;
10309;SDS011;5200;43.236;27.986;2022-09-13T04:15:52;1.50;;;0.98;;
10309;SDS011;5200;43.236;27.986;2022-09-13T04:18:19;0.80;;;0.80;;
10309;SDS011;5200;43.236;27.986;2022-09-13T04:20:52;1.02;;;0.93;;
10309;SDS011;5200;43.236;27.986;2022-09-13T04:23:20;0.73;;;0.73;;
10309;SDS011;5200;43.236;27.986;2022-09-13T04:25:48;0.98;;;0.95;;
10309;SDS011;5200;43.236;27.986;2022-09-13T04:28:16;1.70;;;0.90;;
10309;SDS011;5200;43.236;27.986;2022-09-13T04:30:44;0.80;;;0.80;;
10309;SDS011;5200;43.236;27.986;2022-09-13T04:33:11;2.85;;;0.93;;
10309;SDS011;5200;43.236;27.986;2022-09-13T04:35:39;0.52;;;0.52;;
10309;SDS011;5200;43.236;27.986;2022-09-13T04:38:06;2.92;;;0.80;;
10309;SDS011;5200;43.236;27.986;2022-09-13T04:40:33;0.93;;;0.75;;
10309;SDS011;5200;43.236;27.986;2022-09-13T04:43:02;2.15;;;0.95;;
10309;SDS011;5200;43.236;27.986;2022-09-13T04:45:29;5.22;;;1.25;;
10309;SDS011;5200;43.236;27.986;2022-09-13T04:47:56;2.15;;;1.38;;
10309;SDS011;5200;43.236;27.986;2022-09-13T04:50:23;1.65;;;0.90;;
10309;SDS011;5200;43.236;27.986;2022-09-13T04:52:53;1.58;;;0.75;;
10309;SDS011;5200;43.236;27.986;2022-09-13T04:55:20;0.95;;;0.80;;
10309;SDS011;5200;43.236;27.986;2022-09-13T04:57:51;1.60;;;0.93;;
10309;SDS011;5200;43.236;27.986;2022-09-13T05:00:21;0.77;;;0.77;;
10309;SDS011;5200;43.236;27.986;2022-09-13T05:02:53;0.93;;;0.90;;
10309;SDS011;5200;43.236;27.986;2022-09-13T05:05:21;0.93;;;0.65;;
10309;SDS011;5200;43.236;27.986;2022-09-13T05:07:50;0.82;;;0.82;;
10309;SDS011;5200;43.236;27.986;2022-09-13T05:10:17;0.68;;;0.68;;
10309;SDS011;5200;43.236;27.986;2022-09-13T05:12:44;0.98;;;0.60;;
10309;SDS011;5200;43.236;27.986;2022-09-13T05:15:11;0.85;;;0.82;;
10309;SDS011;5200;43.236;27.986;2022-09-13T05:17:39;1.05;;;0.68;;
10309;SDS011;5200;43.236;27.986;2022-09-13T05:20:07;1.75;;;0.98;;
10309;SDS011;5200;43.236;27.986;2022-09-13T05:22:34;1.35;;;0.95;;
10309;SDS011;5200;43.236;27.986;2022-09-13T05:25:01;2.67;;;1.15;;
10309;SDS011;5200;43.236;27.986;2022-09-13T05:27:28;1.33;;;0.80;;
10309;SDS011;5200;43.236;27.986;2022-09-13T05:29:55;2.83;;;0.85;;
10309;SDS011;5200;43.236;27.986;2022-09-13T05:32:22;0.82;;;0.70;;
10309;SDS011;5200;43.236;27.986;2022-09-13T05:34:50;1.00;;;0.95;;
10309;SDS011;5200;43.236;27.986;2022-09-13T05:37:17;0.70;;;0.70;;
10309;SDS011;5200;43.236;27.986;2022-09-13T05:39:44;1.35;;;1.25;;
10309;SDS011;5200;43.236;27.986;2022-09-13T05:42:10;3.58;;;1.42;;
10309;SDS011;5200;43.236;27.986;2022-09-13T05:44:37;1.63;;;0.80;;
10309;SDS011;5200;43.236;27.986;2022-09-13T05:47:04;0.85;;;0.85;;
10309;SDS011;5200;43.236;27.986;2022-09-13T05:49:31;2.83;;;1.08;;
10309;SDS011;5200;43.236;27.986;2022-09-13T05:52:00;0.65;;;0.65;;
10309;SDS011;5200;43.236;27.986;2022-09-13T05:54:27;0.80;;;0.80;;
10309;SDS011;5200;43.236;27.986;2022-09-13T05:56:54;0.63;;;0.63;;
10309;SDS011;5200;43.236;27.986;2022-09-13T05:59:21;0.98;;;0.70;;
10309;SDS011;5200;43.236;27.986;2022-09-13T06:01:48;0.85;;;0.85;;
10309;SDS011;5200;43.236;27.986;2022-09-13T06:04:15;1.75;;;1.02;;
10309;SDS011;5200;43.236;27.986;2022-09-13T06:06:42;1.52;;;1.02;;
10309;SDS011;5200;43.236;27.986;2022-09-13T06:09:10;0.63;;;0.63;;
10309;SDS011;5200;43.236;27.986;2022-09-13T06:11:37;4.60;;;0.88;;
10309;SDS011;5200;43.236;27.986;2022-09-13T06:14:04;2.63;;;0.90;;
10309;SDS011;5200;43.236;27.986;2022-09-13T06:16:31;2.05;;;1.00;;
10309;SDS011;5200;43.236;27.986;2022-09-13T06:18:58;2.63;;;0.60;;
10309;SDS011;5200;43.236;27.986;2022-09-13T06:21:25;0.82;;;0.75;;
10309;SDS011;5200;43.236;27.986;2022-09-13T06:23:52;0.82;;;0.82;;
10309;SDS011;5200;43.236;27.986;2022-09-13T06:26:22;0.90;;;0.90;;
10309;SDS011;5200;43.236;27.986;2022-09-13T06:28:50;1.52;;;0.85;;
10309;SDS011;5200;43.236;27.986;2022-09-13T06:31:19;2.72;;;0.80;;
10309;SDS011;5200;43.236;27.986;2022-09-13T06:33:48;1.60;;;1.00;;
10309;SDS011;5200;43.236;27.986;2022-09-13T06:36:21;11.90;;;1.40;;
10309;SDS011;5200;43.236;27.986;2022-09-13T06:38:48;1.02;;;0.95;;
10309;SDS011;5200;43.236;27.986;2022-09-13T06:41:15;2.42;;;0.80;;
10309;SDS011;5200;43.236;27.986;2022-09-13T06:43:46;1.20;;;1.10;;
10309;SDS011;5200;43.236;27.986;2022-09-13T06:46:14;1.00;;;1.00;;
10309;SDS011;5200;43.236;27.986;2022-09-13T06:48:42;0.90;;;0.90;;
10309;SDS011;5200;43.236;27.986;2022-09-13T06:51:11;0.95;;;0.90;;
10309;SDS011;5200;43.236;27.986;2022-09-13T06:53:40;0.80;;;0.80;;
10309;SDS011;5200;43.236;27.986;2022-09-13T06:56:08;0.98;;;0.95;;
10309;SDS011;5200;43.236;27.986;2022-09-13T06:58:37;1.67;;;0.85;;
10309;SDS011;5200;43.236;27.986;2022-09-13T07:01:07;2.25;;;1.02;;
10309;SDS011;5200;43.236;27.986;2022-09-13T07:03:37;0.98;;;0.80;;
10309;SDS011;5200;43.236;27.986;2022-09-13T07:06:06;1.70;;;1.38;;
10309;SDS011;5200;43.236;27.986;2022-09-13T07:08:34;1.02;;;0.80;;
10309;SDS011;5200;43.236;27.986;2022-09-13T07:11:01;3.15;;;1.63;;
10309;SDS011;5200;43.236;27.986;2022-09-13T07:13:28;1.40;;;1.30;;
10309;SDS011;5200;43.236;27.986;2022-09-13T07:15:55;1.88;;;1.10;;
10309;SDS011;5200;43.236;27.986;2022-09-13T07:18:23;1.85;;;1.20;;
10309;SDS011;5200;43.236;27.986;2022-09-13T07:20:50;1.45;;;1.08;;
10309;SDS011;5200;43.236;27.986;2022-09-13T07:23:17;0.90;;;0.90;;
10309;SDS011;5200;43.236;27.986;2022-09-13T07:25:52;6.88;;;1.55;;
10309;SDS011;5200;43.236;27.986;2022-09-13T07:28:19;1.48;;;1.33;;
10309;SDS011;5200;43.236;27.986;2022-09-13T07:30:46;1.48;;;1.38;;
10309;SDS011;5200;43.236;27.986;2022-09-13T07:33:13;3.97;;;1.70;;
10309;SDS011;5200;43.236;27.986;2022-09-13T07:35:42;1.40;;;1.30;;
10309;SDS011;5200;43.236;27.986;2022-09-13T07:38:09;1.50;;;1.40;;
10309;SDS011;5200;43.236;27.986;2022-09-13T07:40:36;1.65;;;1.23;;
10309;SDS011;5200;43.236;27.986;2022-09-13T07:43:02;1.42;;;1.20;;
10309;SDS011;5200;43.236;27.986;2022-09-13T07:45:29;1.60;;;1.50;;
10309;SDS011;5200;43.236;27.986;2022-09-13T07:47:56;2.05;;;1.45;;
10309;SDS011;5200;43.236;27.986;2022-09-13T07:50:23;1.73;;;1.45;;
10309;SDS011;5200;43.236;27.986;2022-09-13T07:52:51;1.48;;;1.38;;
10309;SDS011;5200;43.236;27.986;2022-09-13T07:55:18;5.43;;;1.77;;
10309;SDS011;5200;43.236;27.986;2022-09-13T07:57:45;1.55;;;1.40;;
10309;SDS011;5200;43.236;27.986;2022-09-13T08:00:12;5.50;;;1.60;;
10309;SDS011;5200;43.236;27.986;2022-09-13T08:02:40;1.70;;;1.60;;
10309;SDS011;5200;43.236;27.986;2022-09-13T08:05:07;2.22;;;1.50;;
10309;SDS011;5200;43.236;27.986;2022-09-13T08:07:34;2.83;;;1.50;;
10309;SDS011;5200;43.236;27.986;2022-09-13T08:10:02;2.67;;;1.50;;
10309;SDS011;5200;43.236;27.986;2022-09-13T08:12:29;1.80;;;1.40;;
10309;SDS011;5200;43.236;27.986;2022-09-13T08:14:56;1.35;;;1.25;;
10309;SDS011;5200;43.236;27.986;2022-09-13T08:17:23;1.35;;;1.30;;
10309;SDS011;5200;43.236;27.986;2022-09-13T08:19:50;2.08;;;1.23;;
10309;SDS011;5200;43.236;27.986;2022-09-13T08:22:17;2.63;;;1.55;;
10309;SDS011;5200;43.236;27.986;2022-09-13T08:24:44;1.45;;;1.20;;
10309;SDS011;5200;43.236;27.986;2022-09-13T08:27:12;1.95;;;1.58;;
10309;SDS011;5200;43.236;27.986;2022-09-13T08:29:39;1.40;;;1.30;;
10309;SDS011;5200;43.236;27.986;2022-09-13T08:32:06;1.50;;;1.40;;
10309;SDS011;5200;43.236;27.986;2022-09-13T08:34:32;3.50;;;1.75;;
10309;SDS011;5200;43.236;27.986;2022-09-13T08:36:59;2.28;;;1.27;;
10309;SDS011;5200;43.236;27.986;2022-09-13T08:39:26;5.70;;;2.22;;
10309;SDS011;5200;43.236;27.986;2022-09-13T08:42:03;4.30;;;1.60;;
10309;SDS011;5200;43.236;27.986;2022-09-13T08:44:39;1.88;;;1.60;;
10309;SDS011;5200;43.236;27.986;2022-09-13T08:47:21;2.67;;;1.50;;
10309;SDS011;5200;43.236;27.986;2022-09-13T08:49:56;1.92;;;1.40;;
10309;SDS011;5200;43.236;27.986;2022-09-13T08:52:28;1.65;;;1.20;;
10309;SDS011;5200;43.236;27.986;2022-09-13T08:55:13;1.25;;;1.20;;
10309;SDS011;5200;43.236;27.986;2022-09-13T08:57:50;2.88;;;1.50;;
10309;SDS011;5200;43.236;27.986;2022-09-13T09:00:22;3.28;;;1.30;;
10309;SDS011;5200;43.236;27.986;2022-09-13T09:03:07;1.98;;;1.58;;
10309;SDS011;5200;43.236;27.986;2022-09-13T09:05:44;1.30;;;1.20;;
10309;SDS011;5200;43.236;27.986;2022-09-13T09:08:14;1.40;;;1.25;;
10309;SDS011;5200;43.236;27.986;2022-09-13T09:10:58;3.45;;;1.30;;
10309;SDS011;5200;43.236;27.986;2022-09-13T09:13:29;1.20;;;1.10;;
10309;SDS011;5200;43.236;27.986;2022-09-13T09:15:59;1.88;;;1.30;;
10309;SDS011;5200;43.236;27.986;2022-09-13T09:18:31;2.92;;;1.33;;
10309;SDS011;5200;43.236;27.986;2022-09-13T09:21:01;2.42;;;1.50;;
10309;SDS011;5200;43.236;27.986;2022-09-13T09:23:29;1.92;;;1.67;;
10309;SDS011;5200;43.236;27.986;2022-09-13T09:26:10;2.65;;;1.38;;
10309;SDS011;5200;43.236;27.986;2022-09-13T09:28:42;1.70;;;1.20;;
10309;SDS011;5200;43.236;27.986;2022-09-13T09:31:11;2.97;;;1.45;;
10309;SDS011;5200;43.236;27.986;2022-09-13T09:36:36;3.42;;;1.27;;
10309;SDS011;5200;43.236;27.986;2022-09-13T09:39:09;3.97;;;1.38;;
10309;SDS011;5200;43.236;27.986;2022-09-13T09:41:38;1.30;;;1.20;;
10309;SDS011;5200;43.236;27.986;2022-09-13T09:44:09;1.50;;;1.40;;
10309;SDS011;5200;43.236;27.986;2022-09-13T09:46:51;1.40;;;1.30;;
10309;SDS011;5200;43.236;27.986;2022-09-13T09:49:24;1.50;;;1.30;;
10309;SDS011;5200;43.236;27.986;2022-09-13T09:52:15;1.70;;;1.50;;
10309;SDS011;5200;43.236;27.986;2022-09-13T09:54:46;1.55;;;1.45;;
10309;SDS011;5200;43.236;27.986;2022-09-13T09:57:14;1.50;;;1.40;;
10309;SDS011;5200;43.236;27.986;2022-09-13T09:59:44;1.40;;;1.30;;
10309;SDS011;5200;43.236;27.986;2022-09-13T10:02:14;2.60;;;1.55;;
10309;SDS011;5200;43.236;27.986;2022-09-13T10:04:52;1.70;;;1.60;;
10309;SDS011;5200;43.236;27.986;2022-09-13T10:07:23;2.35;;;1.75;;
10309;SDS011;5200;43.236;27.986;2022-09-13T10:09:56;1.65;;;1.30;;
10309;SDS011;5200;43.236;27.986;2022-09-13T10:12:26;2.75;;;1.65;;
10309;SDS011;5200;43.236;27.986;2022-09-13T10:14:58;5.95;;;1.63;;
10309;SDS011;5200;43.236;27.986;2022-09-13T10:17:31;1.48;;;1.38;;
10309;SDS011;5200;43.236;27.986;2022-09-13T10:19:58;4.57;;;1.83;;
10309;SDS011;5200;43.236;27.986;2022-09-13T10:22:28;2.78;;;1.50;;
10309;SDS011;5200;43.236;27.986;2022-09-13T10:25:08;5.00;;;1.40;;
10309;SDS011;5200;43.236;27.986;2022-09-13T10:27:41;1.60;;;1.50;;
10309;SDS011;5200;43.236;27.986;2022-09-13T10:30:22;1.60;;;1.50;;
10309;SDS011;5200;43.236;27.986;2022-09-13T10:32:59;1.58;;;1.48;;
10309;SDS011;5200;43.236;27.986;2022-09-13T10:35:27;2.83;;;1.50;;
10309;SDS011;5200;43.236;27.986;2022-09-13T10:37:55;1.75;;;1.65;;
10309;SDS011;5200;43.236;27.986;2022-09-13T10:40:23;1.55;;;1.45;;
10309;SDS011;5200;43.236;27.986;2022-09-13T10:42:55;1.50;;;1.40;;
10309;SDS011;5200;43.236;27.986;2022-09-13T10:45:24;1.65;;;1.50;;
10309;SDS011;5200;43.236;27.986;2022-09-13T10:47:53;1.63;;;1.52;;
10309;SDS011;5200;43.236;27.986;2022-09-13T10:50:26;1.63;;;1.40;;
10309;SDS011;5200;43.236;27.986;2022-09-13T10:52:55;1.95;;;1.50;;
10309;SDS011;5200;43.236;27.986;2022-09-13T10:55:31;6.15;;;1.55;;
10309;SDS011;5200;43.236;27.986;2022-09-13T10:58:12;1.58;;;1.48;;
10309;SDS011;5200;43.236;27.986;2022-09-13T11:03:51;1.50;;;1.40;;
10309;SDS011;5200;43.236;27.986;2022-09-13T11:06:41;1.25;;;1.13;;
10309;SDS011;5200;43.236;27.986;2022-09-13T11:09:17;1.50;;;1.40;;
10309;SDS011;5200;43.236;27.986;2022-09-13T11:11:54;1.40;;;1.30;;
10309;SDS011;5200;43.236;27.986;2022-09-13T11:14:34;2.10;;;1.80;;
10309;SDS011;5200;43.236;27.986;2022-09-13T11:17:13;1.60;;;1.50;;
10309;SDS011;5200;43.236;27.986;2022-09-13T11:19:58;1.63;;;1.52;;
10309;SDS011;5200;43.236;27.986;2022-09-13T11:22:50;1.88;;;1.42;;
10309;SDS011;5200;43.236;27.986;2022-09-13T11:25:45;1.63;;;1.30;;
10309;SDS011;5200;43.236;27.986;2022-09-13T11:28:24;1.98;;;1.80;;
10309;SDS011;5200;43.236;27.986;2022-09-13T11:31:02;1.38;;;1.30;;
10309;SDS011;5200;43.236;27.986;2022-09-13T11:33:42;2.10;;;1.90;;
10309;SDS011;5200;43.236;27.986;2022-09-13T11:39:18;2.50;;;1.70;;
10309;SDS011;5200;43.236;27.986;2022-09-13T11:41:58;1.65;;;1.40;;
10309;SDS011;5200;43.236;27.986;2022-09-13T11:44:44;1.98;;;1.63;;
10309;SDS011;5200;43.236;27.986;2022-09-13T11:47:24;1.73;;;1.63;;
10309;SDS011;5200;43.236;27.986;2022-09-13T11:50:02;1.63;;;1.52;;
10309;SDS011;5200;43.236;27.986;2022-09-13T11:52:44;2.95;;;1.45;;
10309;SDS011;5200;43.236;27.986;2022-09-13T11:55:25;1.50;;;1.40;;
10309;SDS011;5200;43.236;27.986;2022-09-13T11:57:56;1.38;;;1.27;;
10309;SDS011;5200;43.236;27.986;2022-09-13T12:00:28;1.52;;;1.42;;
10309;SDS011;5200;43.236;27.986;2022-09-13T12:03:02;2.03;;;1.30;;
10309;SDS011;5200;43.236;27.986;2022-09-13T12:05:39;1.40;;;1.30;;
10309;SDS011;5200;43.236;27.986;2022-09-13T12:08:11;1.73;;;1.63;;
10309;SDS011;5200;43.236;27.986;2022-09-13T12:10:44;1.92;;;1.70;;
10309;SDS011;5200;43.236;27.986;2022-09-13T12:13:17;2.35;;;1.40;;
10309;SDS011;5200;43.236;27.986;2022-09-13T12:15:48;1.58;;;1.30;;
10309;SDS011;5200;43.236;27.986;2022-09-13T12:18:18;3.58;;;1.52;;
10309;SDS011;5200;43.236;27.986;2022-09-13T12:20:50;1.60;;;1.50;;
10309;SDS011;5200;43.236;27.986;2022-09-13T12:23:21;1.42;;;1.30;;
10309;SDS011;5200;43.236;27.986;2022-09-13T12:25:56;2.25;;;1.73;;
10309;SDS011;5200;43.236;27.986;2022-09-13T12:28:27;1.55;;;1.35;;
10309;SDS011;5200;43.236;27.986;2022-09-13T12:31:00;1.35;;;1.27;;
10309;SDS011;5200;43.236;27.986;2022-09-13T12:33:30;1.63;;;1.52;;
10309;SDS011;5200;43.236;27.986;2022-09-13T12:36:08;1.30;;;1.20;;
10309;SDS011;5200;43.236;27.986;2022-09-13T12:42:04;4.35;;;1.55;;
10309;SDS011;5200;43.236;27.986;2022-09-13T12:44:50;1.40;;;1.13;;
10309;SDS011;5200;43.236;27.986;2022-09-13T12:50:28;1.60;;;1.50;;
10309;SDS011;5200;43.236;27.986;2022-09-13T12:53:08;3.75;;;1.55;;
10309;SDS011;5200;43.236;27.986;2022-09-13T12:56:00;1.95;;;1.20;;
10309;SDS011;5200;43.236;27.986;2022-09-13T12:58:51;1.20;;;1.20;;
10309;SDS011;5200;43.236;27.986;2022-09-13T13:01:34;1.55;;;1.38;;
10309;SDS011;5200;43.236;27.986;2022-09-13T13:04:03;2.22;;;1.60;;
10309;SDS011;5200;43.236;27.986;2022-09-13T13:06:40;1.60;;;1.50;;
10309;SDS011;5200;43.236;27.986;2022-09-13T13:09:19;1.20;;;1.20;;
10309;SDS011;5200;43.236;27.986;2022-09-13T13:11:49;2.45;;;2.25;;
10309;SDS011;5200;43.236;27.986;2022-09-13T13:14:27;3.13;;;1.90;;
10309;SDS011;5200;43.236;27.986;2022-09-13T13:26:04;1.70;;;1.48;;
10309;SDS011;5200;43.236;27.986;2022-09-13T13:28:50;2.17;;;1.98;;
10309;SDS011;5200;43.236;27.986;2022-09-13T13:31:40;6.28;;;1.63;;
10309;SDS011;5200;43.236;27.986;2022-09-13T13:37:22;2.20;;;2.00;;
10309;SDS011;5200;43.236;27.986;2022-09-13T13:40:09;1.52;;;1.42;;
10309;SDS011;5200;43.236;27.986;2022-09-13T13:45:55;2.30;;;1.52;;
10309;SDS011;5200;43.236;27.986;2022-09-13T13:48:36;3.33;;;1.50;;
10309;SDS011;5200;43.236;27.986;2022-09-13T13:53:55;1.63;;;1.52;;
10309;SDS011;5200;43.236;27.986;2022-09-13T13:59:15;2.00;;;1.77;;
10309;SDS011;5200;43.236;27.986;2022-09-13T14:01:49;1.80;;;1.70;;
10309;SDS011;5200;43.236;27.986;2022-09-13T14:10:25;1.77;;;1.67;;
10309;SDS011;5200;43.236;27.986;2022-09-13T14:13:15;1.67;;;1.52;;
10309;SDS011;5200;43.236;27.986;2022-09-13T14:15:52;1.40;;;1.30;;
10309;SDS011;5200;43.236;27.986;2022-09-13T14:21:42;2.78;;;1.33;;
10309;SDS011;5200;43.236;27.986;2022-09-13T14:24:15;1.38;;;1.30;;
10309;SDS011;5200;43.236;27.986;2022-09-13T14:26:44;1.70;;;1.60;;
10309;SDS011;5200;43.236;27.986;2022-09-13T14:29:12;1.63;;;1.42;;
10309;SDS011;5200;43.236;27.986;2022-09-13T14:31:44;2.38;;;1.73;;
10309;SDS011;5200;43.236;27.986;2022-09-13T14:34:18;2.92;;;1.40;;
10309;SDS011;5200;43.236;27.986;2022-09-13T14:36:52;4.00;;;1.45;;
10309;SDS011;5200;43.236;27.986;2022-09-13T14:39:21;2.85;;;1.65;;
10309;SDS011;5200;43.236;27.986;2022-09-13T14:41:48;2.97;;;1.88;;
10309;SDS011;5200;43.236;27.986;2022-09-13T14:44:24;4.70;;;1.85;;
10309;SDS011;5200;43.236;27.986;2022-09-13T14:46:52;2.45;;;1.83;;
10309;SDS011;5200;43.236;27.986;2022-09-13T14:49:26;1.60;;;1.50;;
10309;SDS011;5200;43.236;27.986;2022-09-13T14:52:00;1.73;;;1.60;;
10309;SDS011;5200;43.236;27.986;2022-09-13T14:54:33;2.22;;;1.60;;
10309;SDS011;5200;43.236;27.986;2022-09-13T14:57:04;1.80;;;1.70;;
10309;SDS011;5200;43.236;27.986;2022-09-13T14:59:35;1.60;;;1.50;;
10309;SDS011;5200;43.236;27.986;2022-09-13T15:02:13;1.98;;;1.52;;
10309;SDS011;5200;43.236;27.986;2022-09-13T15:04:45;1.83;;;1.67;;
10309;SDS011;5200;43.236;27.986;2022-09-13T15:07:19;1.80;;;1.70;;
10309;SDS011;5200;43.236;27.986;2022-09-13T15:09:48;4.18;;;1.60;;
10309;SDS011;5200;43.236;27.986;2022-09-13T15:12:23;1.83;;;1.50;;
10309;SDS011;5200;43.236;27.986;2022-09-13T15:17:53;2.28;;;2.08;;
10309;SDS011;5200;43.236;27.986;2022-09-13T15:20:22;2.83;;;1.63;;
10309;SDS011;5200;43.236;27.986;2022-09-13T15:22:52;2.42;;;1.80;;
10309;SDS011;5200;43.236;27.986;2022-09-13T15:25:20;4.60;;;1.73;;
10309;SDS011;5200;43.236;27.986;2022-09-13T15:27:50;1.90;;;1.80;;
10309;SDS011;5200;43.236;27.986;2022-09-13T15:30:22;1.75;;;1.65;;
10309;SDS011;5200;43.236;27.986;2022-09-13T15:33:05;2.25;;;1.65;;
10309;SDS011;5200;43.236;27.986;2022-09-13T15:35:42;2.75;;;1.80;;
10309;SDS011;5200;43.236;27.986;2022-09-13T15:38:16;2.22;;;1.73;;
10309;SDS011;5200;43.236;27.986;2022-09-13T15:40:56;1.60;;;1.50;;
10309;SDS011;5200;43.236;27.986;2022-09-13T15:43:25;1.63;;;1.52;;
10309;SDS011;5200;43.236;27.986;2022-09-13T15:45:52;2.40;;;1.58;;
10309;SDS011;5200;43.236;27.986;2022-09-13T15:48:23;2.40;;;1.52;;
10309;SDS011;5200;43.236;27.986;2022-09-13T15:51:09;4.60;;;2.00;;
10309;SDS011;5200;43.236;27.986;2022-09-13T15:53:39;2.47;;;1.75;;
10309;SDS011;5200;43.236;27.986;2022-09-13T15:56:09;1.70;;;1.60;;
10309;SDS011;5200;43.236;27.986;2022-09-13T15:58:39;1.75;;;1.65;;
10309;SDS011;5200;43.236;27.986;2022-09-13T16:01:08;2.08;;;1.55;;
10309;SDS011;5200;43.236;27.986;2022-09-13T16:03:35;1.85;;;1.70;;
10309;SDS011;5200;43.236;27.986;2022-09-13T16:06:03;1.92;;;1.70;;
10309;SDS011;5200;43.236;27.986;2022-09-13T16:08:31;4.68;;;2.40;;